Hang Jun 9 — BTYL — position and weather

sailwx.info

Track history (hours):
 
Tides and Currents Weather Stations Pressure Air Temp Water Temp Dewpoint Dewpoint Depression Visibility Wind Speed Wind Dir Waves Ship Positions

Hang Jun 9

Last reported at 2014-Aug-27 10:26 UTC. Time now 2014-Aug-27 11:11 UTC.
Position N 31°37' E 121°18'.

Length 85 m; draft 3.6 m.

Type: Dredging. MMSI: 412070110.

Date/timePositionNaut miles runAvg speedWind from/ knotsBaromVisibWave heightAir tempDewpointWater temp
2014-Aug-27 10:26N 31°37' E 121°18'4 4.2
2014-Aug-27 09:34N 31°34' E 121°19'0 0.1
2014-Aug-27 08:33N 31°33' E 121°19'1 0.6
2014-Aug-27 07:33N 31°33' E 121°20'1 0.6
2014-Aug-27 06:33N 31°34' E 121°20'1 1.0
2014-Aug-27 05:33N 31°34' E 121°18'2 1.5
2014-Aug-27 04:33N 31°33' E 121°20'0 0.2
2014-Aug-27 03:33N 31°33' E 121°20'0 0.3
2014-Aug-27 02:33N 31°33' E 121°20'8 5.6
2014-Aug-27 01:05N 31°39' E 121°13'0 0.5
2014-Aug-27 00:32N 31°39' E 121°13'2 0.1
2014-Aug-26 08:22N 31°38' E 121°15'4 4.2
2014-Aug-26 07:32N 31°36' E 121°18'3 3.0
2014-Aug-26 06:33N 31°33' E 121°20'0 0.1
2014-Aug-26 05:34N 31°33' E 121°20'0 0.1
2014-Aug-26 04:33N 31°33' E 121°20'0 0.3
2014-Aug-26 03:33N 31°33' E 121°20'1 0.9
2014-Aug-26 02:13N 31°34' E 121°19'1 1.8
2014-Aug-26 01:34N 31°33' E 121°20'1 0.7
2014-Aug-26 00:33N 31°33' E 121°19'0 0.2
2014-Aug-25 23:32N 31°34' E 121°19'4 3.5
2014-Aug-25 22:28N 31°37' E 121°17'0 0.3
2014-Aug-25 21:29N 31°37' E 121°18'0 0.0
2014-Aug-25 20:28N 31°37' E 121°18'0 0.1
2014-Aug-25 19:31N 31°37' E 121°18'0 0.1
2014-Aug-25 18:24N 31°37' E 121°17'0 0.0
2014-Aug-25 17:33N 31°37' E 121°17'0 0.0
2014-Aug-25 16:34N 31°37' E 121°17'0 0.0
2014-Aug-25 15:33N 31°37' E 121°17'0 0.1
2014-Aug-25 14:33N 31°37' E 121°18'0 0.0
2014-Aug-25 13:03N 31°37' E 121°18'0 0.0
2014-Aug-25 11:21N 31°37' E 121°18'4 4.8
2014-Aug-25 10:34N 31°34' E 121°19'1 0.7
2014-Aug-25 09:32N 31°34' E 121°19'1 0.8
2014-Aug-25 08:33N 31°34' E 121°19'1 0.6
2014-Aug-25 07:34N 31°34' E 121°20'1 0.7
2014-Aug-25 06:26N 31°33' E 121°19'1 0.6
2014-Aug-25 05:27N 31°34' E 121°19'1 1.2
2014-Aug-25 04:33N 31°33' E 121°20'0 0.5
2014-Aug-25 03:34N 31°33' E 121°19'0 0.3
2014-Aug-25 02:33N 31°34' E 121°19'1 0.6
2014-Aug-25 01:31N 31°34' E 121°20'1 0.7
2014-Aug-25 00:33N 31°33' E 121°19'1 0.8
2014-Aug-24 23:31N 31°33' E 121°20'5 1.1
2014-Aug-24 19:04N 31°37' E 121°18'0 0.1
2014-Aug-24 18:31N 31°37' E 121°18'0 0.1
2014-Aug-24 17:32N 31°37' E 121°18'0 0.0
2014-Aug-24 14:06N 31°37' E 121°18'0 0.0
2014-Aug-24 13:33N 31°37' E 121°18'0 0.1
2014-Aug-24 11:17N 31°37' E 121°18'4 5.5
2014-Aug-24 10:34N 31°33' E 121°19'1 0.5
2014-Aug-24 09:16N 31°33' E 121°20'2 2.1
2014-Aug-24 08:31N 31°34' E 121°19'1 0.6
2014-Aug-24 07:31N 31°34' E 121°19'1 1.3
2014-Aug-24 06:27N 31°35' E 121°19'2 1.8
2014-Aug-24 05:33N 31°34' E 121°19'0 0.1
2014-Aug-24 04:33N 31°34' E 121°19'0 0.5
2014-Aug-24 03:33N 31°34' E 121°19'1 0.6
2014-Aug-24 02:33N 31°33' E 121°19'0 0.4
2014-Aug-24 01:33N 31°34' E 121°19'0 0.1
2014-Aug-24 00:32N 31°34' E 121°19'1 0.6
2014-Aug-23 23:33N 31°33' E 121°19'1 0.0
2014-Aug-23 03:34N 31°33' E 121°19'1 1.1
2014-Aug-23 02:31N 31°34' E 121°19'1 0.7
2014-Aug-23 01:33N 31°34' E 121°19'1 0.7
2014-Aug-23 00:33N 31°33' E 121°20'0 0.0
2014-Aug-22 23:34N 31°33' E 121°20'4 3.8
2014-Aug-22 22:34N 31°36' E 121°18'0 0.2
2014-Aug-22 20:04N 31°37' E 121°18'0 0.0
2014-Aug-22 18:29N 31°37' E 121°18'3 0.4
2014-Aug-22 09:28N 31°34' E 121°19'1 0.4
2014-Aug-22 07:23N 31°33' E 121°20'0 0.1
2014-Aug-22 06:12N 31°33' E 121°20'1 2.1
2014-Aug-22 05:33N 31°34' E 121°20'0 0.3
2014-Aug-22 04:18N 31°34' E 121°20'1 1.0
2014-Aug-22 03:30N 31°34' E 121°19'1 0.6
2014-Aug-22 01:27N 31°33' E 121°20'4 1.0
2014-Aug-21 21:22N 31°37' E 121°18'0 0.0
2014-Aug-21 17:33N 31°37' E 121°18'0 0.1
2014-Aug-21 16:27N 31°37' E 121°18'0 0.0
2014-Aug-21 13:33N 31°37' E 121°18'0 0.0
2014-Aug-21 12:10N 31°37' E 121°18'0 0.0
2014-Aug-21 11:33N 31°37' E 121°18'4 3.8
2014-Aug-21 10:25N 31°33' E 121°20'0 0.1
2014-Aug-21 09:19N 31°33' E 121°20'5 2.8
2014-Aug-21 07:24N 31°37' E 121°16'0 0.0
2014-Aug-21 06:30N 31°37' E 121°16'6 4.6
2014-Aug-21 05:17N 31°33' E 121°20'2 2.7
2014-Aug-21 04:34N 31°34' E 121°18'2 1.7
2014-Aug-21 03:33N 31°33' E 121°20'0 0.2
2014-Aug-21 02:32N 31°33' E 121°20'1 0.7
2014-Aug-21 01:29N 31°33' E 121°19'1 0.8
2014-Aug-21 00:31N 31°34' E 121°20'1 1.0
2014-Aug-20 23:33N 31°34' E 121°19'3 3.4
2014-Aug-20 22:33N 31°37' E 121°18'0 0.0
2014-Aug-20 21:33N 31°37' E 121°18'0 0.0
2014-Aug-20 20:34N 31°37' E 121°18'0 0.0
2014-Aug-20 19:32N 31°37' E 121°18'0 0.0
2014-Aug-20 18:34N 31°37' E 121°18'0 0.0
2014-Aug-20 17:21N 31°37' E 121°18'0 0.1
2014-Aug-20 16:19N 31°37' E 121°18'0 0.0
2014-Aug-20 15:07N 31°37' E 121°18'0 0.1
2014-Aug-20 14:15N 31°37' E 121°18'0 0.0
2014-Aug-20 13:31N 31°37' E 121°18'0 0.0
2014-Aug-20 12:22N 31°37' E 121°18'0 0.0
2014-Aug-20 11:33N 31°37' E 121°18'2 1.7
2014-Aug-20 10:21N 31°35' E 121°19'2 2.3
2014-Aug-20 09:34N 31°33' E 121°19'0 0.2
2014-Aug-20 08:26N 31°33' E 121°19'1 0.7
2014-Aug-20 07:25N 31°33' E 121°20'1 1.1
2014-Aug-20 06:34N 31°34' E 121°19'0 0.5
2014-Aug-20 05:33N 31°34' E 121°19'1 1.0
2014-Aug-20 04:34N 31°33' E 121°20'1 0.5
2014-Aug-20 03:33N 31°33' E 121°19'1 0.5
2014-Aug-20 02:28N 31°34' E 121°20'1 0.7
2014-Aug-20 01:34N 31°34' E 121°19'1 0.8
2014-Aug-20 00:33N 31°33' E 121°20'0 0.1
2014-Aug-19 23:34N 31°33' E 121°20'5 0.6
2014-Aug-19 14:15N 31°38' E 121°17'0 0.1
2014-Aug-19 10:15N 31°38' E 121°17'5 7.0
2014-Aug-19 09:33N 31°33' E 121°20'1 0.1
2014-Aug-18 10:13N 31°35' E 121°19'2 2.7
2014-Aug-18 09:33N 31°33' E 121°20'0 0.1
2014-Aug-18 08:34N 31°33' E 121°20'0 0.1
2014-Aug-18 07:34N 31°33' E 121°20'0 0.2
2014-Aug-18 06:32N 31°33' E 121°20'1 0.7
2014-Aug-18 05:31N 31°34' E 121°19'0 0.1
2014-Aug-18 04:33N 31°34' E 121°19'1 0.6
2014-Aug-18 03:34N 31°33' E 121°19'1 0.6
2014-Aug-18 02:30N 31°33' E 121°20'0 0.1
2014-Aug-18 01:33N 31°33' E 121°20'1 0.5
2014-Aug-18 00:33N 31°33' E 121°19'  
Track history (hours):
 
Tides and Currents Weather Stations Pressure Air Temp Water Temp Dewpoint Dewpoint Depression Visibility Wind Speed Wind Dir Waves Ship Positions

Hang Jun 9

Last reported at 2014-Aug-27 10:26 UTC. Time now 2014-Aug-27 11:11 UTC.
Position N 31°37' E 121°18'.

Length 85 m; draft 3.6 m.

Type: Dredging. MMSI: 412070110.

Date/timePositionNaut miles runAvg speedWind from/ knotsBaromVisibWave heightAir tempDewpointWater temp
2014-Aug-27 10:26N 31°37' E 121°18'4 4.2
2014-Aug-27 09:34N 31°34' E 121°19'0 0.1
2014-Aug-27 08:33N 31°33' E 121°19'1 0.6
2014-Aug-27 07:33N 31°33' E 121°20'1 0.6
2014-Aug-27 06:33N 31°34' E 121°20'1 1.0
2014-Aug-27 05:33N 31°34' E 121°18'2 1.5
2014-Aug-27 04:33N 31°33' E 121°20'0 0.2
2014-Aug-27 03:33N 31°33' E 121°20'0 0.3
2014-Aug-27 02:33N 31°33' E 121°20'8 5.6
2014-Aug-27 01:05N 31°39' E 121°13'0 0.5
2014-Aug-27 00:32N 31°39' E 121°13'2 0.1
2014-Aug-26 08:22N 31°38' E 121°15'4 4.2
2014-Aug-26 07:32N 31°36' E 121°18'3 3.0
2014-Aug-26 06:33N 31°33' E 121°20'0 0.1
2014-Aug-26 05:34N 31°33' E 121°20'0 0.1
2014-Aug-26 04:33N 31°33' E 121°20'0 0.3
2014-Aug-26 03:33N 31°33' E 121°20'1 0.9
2014-Aug-26 02:13N 31°34' E 121°19'1 1.8
2014-Aug-26 01:34N 31°33' E 121°20'1 0.7
2014-Aug-26 00:33N 31°33' E 121°19'0 0.2
2014-Aug-25 23:32N 31°34' E 121°19'4 3.5
2014-Aug-25 22:28N 31°37' E 121°17'0 0.3
2014-Aug-25 21:29N 31°37' E 121°18'0 0.0
2014-Aug-25 20:28N 31°37' E 121°18'0 0.1
2014-Aug-25 19:31N 31°37' E 121°18'0 0.1
2014-Aug-25 18:24N 31°37' E 121°17'0 0.0
2014-Aug-25 17:33N 31°37' E 121°17'0 0.0
2014-Aug-25 16:34N 31°37' E 121°17'0 0.0
2014-Aug-25 15:33N 31°37' E 121°17'0 0.1
2014-Aug-25 14:33N 31°37' E 121°18'0 0.0
2014-Aug-25 13:03N 31°37' E 121°18'0 0.0
2014-Aug-25 11:21N 31°37' E 121°18'4 4.8
2014-Aug-25 10:34N 31°34' E 121°19'1 0.7
2014-Aug-25 09:32N 31°34' E 121°19'1 0.8
2014-Aug-25 08:33N 31°34' E 121°19'1 0.6
2014-Aug-25 07:34N 31°34' E 121°20'1 0.7
2014-Aug-25 06:26N 31°33' E 121°19'1 0.6
2014-Aug-25 05:27N 31°34' E 121°19'1 1.2
2014-Aug-25 04:33N 31°33' E 121°20'0 0.5
2014-Aug-25 03:34N 31°33' E 121°19'0 0.3
2014-Aug-25 02:33N 31°34' E 121°19'1 0.6
2014-Aug-25 01:31N 31°34' E 121°20'1 0.7
2014-Aug-25 00:33N 31°33' E 121°19'1 0.8
2014-Aug-24 23:31N 31°33' E 121°20'5 1.1
2014-Aug-24 19:04N 31°37' E 121°18'0 0.1
2014-Aug-24 18:31N 31°37' E 121°18'0 0.1
2014-Aug-24 17:32N 31°37' E 121°18'0 0.0
2014-Aug-24 14:06N 31°37' E 121°18'0 0.0
2014-Aug-24 13:33N 31°37' E 121°18'0 0.1
2014-Aug-24 11:17N 31°37' E 121°18'4 5.5
2014-Aug-24 10:34N 31°33' E 121°19'1 0.5
2014-Aug-24 09:16N 31°33' E 121°20'2 2.1
2014-Aug-24 08:31N 31°34' E 121°19'1 0.6
2014-Aug-24 07:31N 31°34' E 121°19'1 1.3
2014-Aug-24 06:27N 31°35' E 121°19'2 1.8
2014-Aug-24 05:33N 31°34' E 121°19'0 0.1
2014-Aug-24 04:33N 31°34' E 121°19'0 0.5
2014-Aug-24 03:33N 31°34' E 121°19'1 0.6
2014-Aug-24 02:33N 31°33' E 121°19'0 0.4
2014-Aug-24 01:33N 31°34' E 121°19'0 0.1
2014-Aug-24 00:32N 31°34' E 121°19'1 0.6
2014-Aug-23 23:33N 31°33' E 121°19'1 0.0
2014-Aug-23 03:34N 31°33' E 121°19'1 1.1
2014-Aug-23 02:31N 31°34' E 121°19'1 0.7
2014-Aug-23 01:33N 31°34' E 121°19'1 0.7
2014-Aug-23 00:33N 31°33' E 121°20'0 0.0
2014-Aug-22 23:34N 31°33' E 121°20'4 3.8
2014-Aug-22 22:34N 31°36' E 121°18'0 0.2
2014-Aug-22 20:04N 31°37' E 121°18'0 0.0
2014-Aug-22 18:29N 31°37' E 121°18'3 0.4
2014-Aug-22 09:28N 31°34' E 121°19'1 0.4
2014-Aug-22 07:23N 31°33' E 121°20'0 0.1
2014-Aug-22 06:12N 31°33' E 121°20'1 2.1
2014-Aug-22 05:33N 31°34' E 121°20'0 0.3
2014-Aug-22 04:18N 31°34' E 121°20'1 1.0
2014-Aug-22 03:30N 31°34' E 121°19'1 0.6
2014-Aug-22 01:27N 31°33' E 121°20'4 1.0
2014-Aug-21 21:22N 31°37' E 121°18'0 0.0
2014-Aug-21 17:33N 31°37' E 121°18'0 0.1
2014-Aug-21 16:27N 31°37' E 121°18'0 0.0
2014-Aug-21 13:33N 31°37' E 121°18'0 0.0
2014-Aug-21 12:10N 31°37' E 121°18'0 0.0
2014-Aug-21 11:33N 31°37' E 121°18'4 3.8
2014-Aug-21 10:25N 31°33' E 121°20'0 0.1
2014-Aug-21 09:19N 31°33' E 121°20'5 2.8
2014-Aug-21 07:24N 31°37' E 121°16'0 0.0
2014-Aug-21 06:30N 31°37' E 121°16'6 4.6
2014-Aug-21 05:17N 31°33' E 121°20'2 2.7
2014-Aug-21 04:34N 31°34' E 121°18'2 1.7
2014-Aug-21 03:33N 31°33' E 121°20'0 0.2
2014-Aug-21 02:32N 31°33' E 121°20'1 0.7
2014-Aug-21 01:29N 31°33' E 121°19'1 0.8
2014-Aug-21 00:31N 31°34' E 121°20'1 1.0
2014-Aug-20 23:33N 31°34' E 121°19'3 3.4
2014-Aug-20 22:33N 31°37' E 121°18'0 0.0
2014-Aug-20 21:33N 31°37' E 121°18'0 0.0
2014-Aug-20 20:34N 31°37' E 121°18'0 0.0
2014-Aug-20 19:32N 31°37' E 121°18'0 0.0
2014-Aug-20 18:34N 31°37' E 121°18'0 0.0
2014-Aug-20 17:21N 31°37' E 121°18'0 0.1
2014-Aug-20 16:19N 31°37' E 121°18'0 0.0
2014-Aug-20 15:07N 31°37' E 121°18'0 0.1
2014-Aug-20 14:15N 31°37' E 121°18'0 0.0
2014-Aug-20 13:31N 31°37' E 121°18'0 0.0
2014-Aug-20 12:22N 31°37' E 121°18'0 0.0
2014-Aug-20 11:33N 31°37' E 121°18'2 1.7
2014-Aug-20 10:21N 31°35' E 121°19'2 2.3
2014-Aug-20 09:34N 31°33' E 121°19'0 0.2
2014-Aug-20 08:26N 31°33' E 121°19'1 0.7
2014-Aug-20 07:25N 31°33' E 121°20'1 1.1
2014-Aug-20 06:34N 31°34' E 121°19'0 0.5
2014-Aug-20 05:33N 31°34' E 121°19'1 1.0
2014-Aug-20 04:34N 31°33' E 121°20'1 0.5
2014-Aug-20 03:33N 31°33' E 121°19'1 0.5
2014-Aug-20 02:28N 31°34' E 121°20'1 0.7
2014-Aug-20 01:34N 31°34' E 121°19'1 0.8
2014-Aug-20 00:33N 31°33' E 121°20'0 0.1
2014-Aug-19 23:34N 31°33' E 121°20'5 0.6
2014-Aug-19 14:15N 31°38' E 121°17'0 0.1
2014-Aug-19 10:15N 31°38' E 121°17'5 7.0
2014-Aug-19 09:33N 31°33' E 121°20'1 0.1
2014-Aug-18 10:13N 31°35' E 121°19'2 2.7
2014-Aug-18 09:33N 31°33' E 121°20'0 0.1
2014-Aug-18 08:34N 31°33' E 121°20'0 0.1
2014-Aug-18 07:34N 31°33' E 121°20'0 0.2
2014-Aug-18 06:32N 31°33' E 121°20'1 0.7
2014-Aug-18 05:31N 31°34' E 121°19'0 0.1
2014-Aug-18 04:33N 31°34' E 121°19'1 0.6
2014-Aug-18 03:34N 31°33' E 121°19'1 0.6
2014-Aug-18 02:30N 31°33' E 121°20'0 0.1
2014-Aug-18 01:33N 31°33' E 121°20'1 0.5
2014-Aug-18 00:33N 31°33' E 121°19'  

Dump ship's entire track history